sensor_id;sensor_type;location;lat;lon;timestamp;temperature;humidity
19862;DHT22;10093;48.148;8.542;2023-04-01T00:00:52;6.00;99.90
19862;DHT22;10093;48.148;8.542;2023-04-01T00:03:18;5.90;99.90
19862;DHT22;10093;48.148;8.542;2023-04-01T00:05:45;5.90;99.90
19862;DHT22;10093;48.148;8.542;2023-04-01T00:08:11;5.80;99.90
19862;DHT22;10093;48.148;8.542;2023-04-01T00:10:36;5.80;99.90
19862;DHT22;10093;48.148;8.542;2023-04-01T00:13:02;5.70;99.90
19862;DHT22;10093;48.148;8.542;2023-04-01T00:15:28;5.70;99.90
19862;DHT22;10093;48.148;8.542;2023-04-01T00:17:54;5.60;99.90
19862;DHT22;10093;48.148;8.542;2023-04-01T00:20:21;5.60;99.90
19862;DHT22;10093;48.148;8.542;2023-04-01T00:22:46;5.60;99.90
19862;DHT22;10093;48.148;8.542;2023-04-01T00:25:13;5.60;99.90
19862;DHT22;10093;48.148;8.542;2023-04-01T00:27:38;5.60;99.90
19862;DHT22;10093;48.148;8.542;2023-04-01T00:30:05;5.60;99.90
19862;DHT22;10093;48.148;8.542;2023-04-01T00:32:31;5.50;99.90
19862;DHT22;10093;48.148;8.542;2023-04-01T00:34:56;5.50;99.90
19862;DHT22;10093;48.148;8.542;2023-04-01T00:37:25;5.50;99.90
19862;DHT22;10093;48.148;8.542;2023-04-01T00:39:51;5.40;99.90
19862;DHT22;10093;48.148;8.542;2023-04-01T00:42:17;5.30;99.90
19862;DHT22;10093;48.148;8.542;2023-04-01T00:44:47;5.30;99.90
19862;DHT22;10093;48.148;8.542;2023-04-01T00:47:13;5.20;99.90
19862;DHT22;10093;48.148;8.542;2023-04-01T00:49:42;5.20;99.90
19862;DHT22;10093;48.148;8.542;2023-04-01T00:52:11;5.20;99.90
19862;DHT22;10093;48.148;8.542;2023-04-01T00:54:38;5.20;99.90
19862;DHT22;10093;48.148;8.542;2023-04-01T00:57:12;5.20;99.90
19862;DHT22;10093;48.148;8.542;2023-04-01T00:59:42;5.20;99.90
19862;DHT22;10093;48.148;8.542;2023-04-01T01:02:11;5.30;99.90
19862;DHT22;10093;48.148;8.542;2023-04-01T01:04:38;5.30;99.90
19862;DHT22;10093;48.148;8.542;2023-04-01T01:15:29;5.20;99.90
19862;DHT22;10093;48.148;8.542;2023-04-01T01:18:32;5.20;99.90
19862;DHT22;10093;48.148;8.542;2023-04-01T01:38:09;5.30;99.90
19862;DHT22;10093;48.148;8.542;2023-04-01T01:40:40;5.40;99.90
19862;DHT22;10093;48.148;8.542;2023-04-01T01:43:09;5.40;99.90
19862;DHT22;10093;48.148;8.542;2023-04-01T01:45:40;5.40;99.90
19862;DHT22;10093;48.148;8.542;2023-04-01T01:48:09;5.50;99.90
19862;DHT22;10093;48.148;8.542;2023-04-01T01:50:36;5.50;99.90
19862;DHT22;10093;48.148;8.542;2023-04-01T01:53:08;5.50;99.90
19862;DHT22;10093;48.148;8.542;2023-04-01T01:55:37;5.50;99.90
19862;DHT22;10093;48.148;8.542;2023-04-01T01:58:23;5.50;99.90
19862;DHT22;10093;48.148;8.542;2023-04-01T02:00:56;5.50;99.90
19862;DHT22;10093;48.148;8.542;2023-04-01T02:03:24;5.50;99.90
19862;DHT22;10093;48.148;8.542;2023-04-01T02:05:53;5.50;99.90
19862;DHT22;10093;48.148;8.542;2023-04-01T02:08:35;5.50;99.90
19862;DHT22;10093;48.148;8.542;2023-04-01T02:11:11;5.50;99.90
19862;DHT22;10093;48.148;8.542;2023-04-01T02:13:45;5.50;99.90
19862;DHT22;10093;48.148;8.542;2023-04-01T02:16:27;5.50;99.90
19862;DHT22;10093;48.148;8.542;2023-04-01T02:18:55;5.50;99.90
19862;DHT22;10093;48.148;8.542;2023-04-01T02:21:24;5.40;99.90
19862;DHT22;10093;48.148;8.542;2023-04-01T02:23:53;5.40;99.90
19862;DHT22;10093;48.148;8.542;2023-04-01T02:26:20;5.40;99.90
19862;DHT22;10093;48.148;8.542;2023-04-01T02:28:46;5.40;99.90
19862;DHT22;10093;48.148;8.542;2023-04-01T02:31:14;5.40;99.90
19862;DHT22;10093;48.148;8.542;2023-04-01T02:33:41;5.30;99.90
19862;DHT22;10093;48.148;8.542;2023-04-01T02:36:12;5.40;99.90
19862;DHT22;10093;48.148;8.542;2023-04-01T02:38:38;5.40;99.90
19862;DHT22;10093;48.148;8.542;2023-04-01T02:41:05;5.40;99.90
19862;DHT22;10093;48.148;8.542;2023-04-01T02:43:31;5.40;99.90
19862;DHT22;10093;48.148;8.542;2023-04-01T02:45:57;5.40;99.90
19862;DHT22;10093;48.148;8.542;2023-04-01T02:48:23;5.50;99.90
19862;DHT22;10093;48.148;8.542;2023-04-01T02:50:49;5.50;99.90
19862;DHT22;10093;48.148;8.542;2023-04-01T02:53:15;5.60;99.90
19862;DHT22;10093;48.148;8.542;2023-04-01T02:55:41;5.70;99.90
19862;DHT22;10093;48.148;8.542;2023-04-01T02:58:06;5.70;99.90
19862;DHT22;10093;48.148;8.542;2023-04-01T03:00:32;5.60;99.90
19862;DHT22;10093;48.148;8.542;2023-04-01T03:02:58;5.60;99.90
19862;DHT22;10093;48.148;8.542;2023-04-01T03:05:23;5.50;99.90
19862;DHT22;10093;48.148;8.542;2023-04-01T03:07:49;5.50;99.90
19862;DHT22;10093;48.148;8.542;2023-04-01T03:10:15;5.50;99.90
19862;DHT22;10093;48.148;8.542;2023-04-01T03:12:40;5.50;99.90
19862;DHT22;10093;48.148;8.542;2023-04-01T03:15:06;5.50;99.90
19862;DHT22;10093;48.148;8.542;2023-04-01T03:17:32;5.60;99.90
19862;DHT22;10093;48.148;8.542;2023-04-01T03:19:58;5.60;99.90
19862;DHT22;10093;48.148;8.542;2023-04-01T03:22:23;5.60;99.90
19862;DHT22;10093;48.148;8.542;2023-04-01T03:24:49;5.60;99.90
19862;DHT22;10093;48.148;8.542;2023-04-01T03:27:15;5.60;99.90
19862;DHT22;10093;48.148;8.542;2023-04-01T03:29:41;5.70;99.90
19862;DHT22;10093;48.148;8.542;2023-04-01T03:32:07;5.70;99.90
19862;DHT22;10093;48.148;8.542;2023-04-01T03:34:32;5.60;99.90
19862;DHT22;10093;48.148;8.542;2023-04-01T03:36:58;5.60;99.90
19862;DHT22;10093;48.148;8.542;2023-04-01T03:39:24;5.70;99.90
19862;DHT22;10093;48.148;8.542;2023-04-01T03:41:50;5.70;99.90
19862;DHT22;10093;48.148;8.542;2023-04-01T03:44:16;5.70;99.90
19862;DHT22;10093;48.148;8.542;2023-04-01T03:46:41;5.60;99.90
19862;DHT22;10093;48.148;8.542;2023-04-01T03:49:11;5.60;99.90
19862;DHT22;10093;48.148;8.542;2023-04-01T03:51:42;5.60;99.90
19862;DHT22;10093;48.148;8.542;2023-04-01T03:54:09;5.60;99.90
19862;DHT22;10093;48.148;8.542;2023-04-01T03:56:35;5.60;99.90
19862;DHT22;10093;48.148;8.542;2023-04-01T03:59:05;5.50;99.90
19862;DHT22;10093;48.148;8.542;2023-04-01T04:01:32;5.50;99.90
19862;DHT22;10093;48.148;8.542;2023-04-01T04:03:57;5.40;99.90
19862;DHT22;10093;48.148;8.542;2023-04-01T04:06:24;5.30;99.90
19862;DHT22;10093;48.148;8.542;2023-04-01T04:08:50;5.30;99.90
19862;DHT22;10093;48.148;8.542;2023-04-01T04:11:16;5.30;99.90
19862;DHT22;10093;48.148;8.542;2023-04-01T04:13:43;5.30;99.90
19862;DHT22;10093;48.148;8.542;2023-04-01T04:16:09;5.30;99.90
19862;DHT22;10093;48.148;8.542;2023-04-01T04:18:36;5.20;99.90
19862;DHT22;10093;48.148;8.542;2023-04-01T04:21:02;5.10;99.90
19862;DHT22;10093;48.148;8.542;2023-04-01T04:23:28;5.00;99.90
19862;DHT22;10093;48.148;8.542;2023-04-01T04:26:00;5.00;99.90
19862;DHT22;10093;48.148;8.542;2023-04-01T04:28:27;4.90;99.90
19862;DHT22;10093;48.148;8.542;2023-04-01T04:30:54;4.90;99.90
19862;DHT22;10093;48.148;8.542;2023-04-01T04:33:20;4.80;99.90
19862;DHT22;10093;48.148;8.542;2023-04-01T04:35:46;4.80;99.90
19862;DHT22;10093;48.148;8.542;2023-04-01T04:38:12;4.80;99.90
19862;DHT22;10093;48.148;8.542;2023-04-01T04:40:41;4.80;99.90
19862;DHT22;10093;48.148;8.542;2023-04-01T04:43:07;4.80;99.90
19862;DHT22;10093;48.148;8.542;2023-04-01T04:45:34;4.90;99.90
19862;DHT22;10093;48.148;8.542;2023-04-01T04:48:00;4.90;99.90
19862;DHT22;10093;48.148;8.542;2023-04-01T04:50:26;5.00;99.90
19862;DHT22;10093;48.148;8.542;2023-04-01T04:52:51;5.00;99.90
19862;DHT22;10093;48.148;8.542;2023-04-01T04:55:17;5.00;99.90
19862;DHT22;10093;48.148;8.542;2023-04-01T04:57:43;5.10;99.90
19862;DHT22;10093;48.148;8.542;2023-04-01T05:00:09;5.10;99.90
19862;DHT22;10093;48.148;8.542;2023-04-01T05:02:38;5.10;99.90
19862;DHT22;10093;48.148;8.542;2023-04-01T05:05:04;5.10;99.90
19862;DHT22;10093;48.148;8.542;2023-04-01T05:07:29;5.20;99.90
19862;DHT22;10093;48.148;8.542;2023-04-01T05:09:55;5.10;99.90
19862;DHT22;10093;48.148;8.542;2023-04-01T05:12:21;5.10;99.90
19862;DHT22;10093;48.148;8.542;2023-04-01T05:14:46;5.10;99.90
19862;DHT22;10093;48.148;8.542;2023-04-01T05:17:13;5.10;99.90
19862;DHT22;10093;48.148;8.542;2023-04-01T05:19:39;5.10;99.90
19862;DHT22;10093;48.148;8.542;2023-04-01T05:22:05;5.10;99.90
19862;DHT22;10093;48.148;8.542;2023-04-01T05:24:31;5.10;99.90
19862;DHT22;10093;48.148;8.542;2023-04-01T05:26:56;5.20;99.90
19862;DHT22;10093;48.148;8.542;2023-04-01T05:29:24;5.30;99.90
19862;DHT22;10093;48.148;8.542;2023-04-01T05:31:50;5.30;99.90
19862;DHT22;10093;48.148;8.542;2023-04-01T05:34:16;5.40;99.90
19862;DHT22;10093;48.148;8.542;2023-04-01T05:36:43;5.30;99.90
19862;DHT22;10093;48.148;8.542;2023-04-01T05:39:09;5.40;99.90
19862;DHT22;10093;48.148;8.542;2023-04-01T05:41:36;5.40;99.90
19862;DHT22;10093;48.148;8.542;2023-04-01T05:44:02;5.50;99.90
19862;DHT22;10093;48.148;8.542;2023-04-01T05:46:28;5.50;99.90
19862;DHT22;10093;48.148;8.542;2023-04-01T05:48:54;5.50;99.90
19862;DHT22;10093;48.148;8.542;2023-04-01T05:51:20;5.50;99.90
19862;DHT22;10093;48.148;8.542;2023-04-01T05:53:45;5.50;99.90
19862;DHT22;10093;48.148;8.542;2023-04-01T05:56:11;5.50;99.90
19862;DHT22;10093;48.148;8.542;2023-04-01T05:58:37;5.50;99.90
19862;DHT22;10093;48.148;8.542;2023-04-01T06:01:08;5.50;99.90
19862;DHT22;10093;48.148;8.542;2023-04-01T06:03:35;5.50;99.90
19862;DHT22;10093;48.148;8.542;2023-04-01T06:06:01;5.50;99.90
19862;DHT22;10093;48.148;8.542;2023-04-01T06:08:29;5.60;99.90
19862;DHT22;10093;48.148;8.542;2023-04-01T06:19:42;5.70;99.90
19862;DHT22;10093;48.148;8.542;2023-04-01T06:25:48;5.90;99.90
19862;DHT22;10093;48.148;8.542;2023-04-01T06:30:50;6.00;99.90
19862;DHT22;10093;48.148;8.542;2023-04-01T06:39:32;6.20;99.90
19862;DHT22;10093;48.148;8.542;2023-04-01T06:50:29;6.30;99.90
19862;DHT22;10093;48.148;8.542;2023-04-01T06:55:44;6.40;99.90
19862;DHT22;10093;48.148;8.542;2023-04-01T06:58:36;6.40;99.90
19862;DHT22;10093;48.148;8.542;2023-04-01T07:01:06;6.40;99.90
19862;DHT22;10093;48.148;8.542;2023-04-01T07:03:33;6.30;99.90
19862;DHT22;10093;48.148;8.542;2023-04-01T07:06:05;6.30;99.90
19862;DHT22;10093;48.148;8.542;2023-04-01T07:08:35;6.40;99.90
19862;DHT22;10093;48.148;8.542;2023-04-01T07:13:41;6.30;99.90
19862;DHT22;10093;48.148;8.542;2023-04-01T07:21:52;6.30;99.90
19862;DHT22;10093;48.148;8.542;2023-04-01T07:24:27;6.30;99.90
19862;DHT22;10093;48.148;8.542;2023-04-01T07:26:56;6.30;99.90
19862;DHT22;10093;48.148;8.542;2023-04-01T07:29:22;6.20;99.90
19862;DHT22;10093;48.148;8.542;2023-04-01T07:47:41;6.20;99.90
19862;DHT22;10093;48.148;8.542;2023-04-01T07:50:28;6.20;99.90
19862;DHT22;10093;48.148;8.542;2023-04-01T07:55:46;6.20;99.90
19862;DHT22;10093;48.148;8.542;2023-04-01T08:06:40;6.30;99.90
19862;DHT22;10093;48.148;8.542;2023-04-01T08:17:36;6.10;99.90
19862;DHT22;10093;48.148;8.542;2023-04-01T08:20:33;6.10;99.90
19862;DHT22;10093;48.148;8.542;2023-04-01T08:23:19;6.00;99.90
19862;DHT22;10093;48.148;8.542;2023-04-01T08:25:54;6.00;99.90
19862;DHT22;10093;48.148;8.542;2023-04-01T08:33:33;6.00;99.90
19862;DHT22;10093;48.148;8.542;2023-04-01T08:36:15;5.90;99.90
19862;DHT22;10093;48.148;8.542;2023-04-01T08:38:49;5.90;99.90
19862;DHT22;10093;48.148;8.542;2023-04-01T08:52:53;6.10;99.90
19862;DHT22;10093;48.148;8.542;2023-04-01T09:00:54;6.40;99.90
19862;DHT22;10093;48.148;8.542;2023-04-01T09:14:39;6.40;99.90
19862;DHT22;10093;48.148;8.542;2023-04-01T09:30:37;6.30;99.90
19862;DHT22;10093;48.148;8.542;2023-04-01T09:38:57;6.20;99.90
19862;DHT22;10093;48.148;8.542;2023-04-01T09:41:30;6.30;99.90
19862;DHT22;10093;48.148;8.542;2023-04-01T09:44:11;6.40;99.90
19862;DHT22;10093;48.148;8.542;2023-04-01T09:49:48;6.70;99.90
19862;DHT22;10093;48.148;8.542;2023-04-01T10:06:13;6.70;99.90
19862;DHT22;10093;48.148;8.542;2023-04-01T10:25:10;7.40;99.90
19862;DHT22;10093;48.148;8.542;2023-04-01T10:39:47;7.20;99.90
19862;DHT22;10093;48.148;8.542;2023-04-01T10:56:59;7.40;99.90
19862;DHT22;10093;48.148;8.542;2023-04-01T11:22:12;8.00;99.90
19862;DHT22;10093;48.148;8.542;2023-04-01T11:28:07;8.00;99.90
19862;DHT22;10093;48.148;8.542;2023-04-01T11:30:41;8.10;99.90
19862;DHT22;10093;48.148;8.542;2023-04-01T11:41:26;9.20;99.90
19862;DHT22;10093;48.148;8.542;2023-04-01T12:02:20;8.50;99.90
19862;DHT22;10093;48.148;8.542;2023-04-01T12:10:20;8.60;99.90
19862;DHT22;10093;48.148;8.542;2023-04-01T12:18:54;8.50;99.90
19862;DHT22;10093;48.148;8.542;2023-04-01T12:40:45;8.50;99.90
19862;DHT22;10093;48.148;8.542;2023-04-01T12:46:26;8.50;99.90
19862;DHT22;10093;48.148;8.542;2023-04-01T12:52:04;8.20;99.90
19862;DHT22;10093;48.148;8.542;2023-04-01T12:54:39;8.30;99.90
19862;DHT22;10093;48.148;8.542;2023-04-01T13:00:53;8.20;99.90
19862;DHT22;10093;48.148;8.542;2023-04-01T13:03:02;8.30;99.90
19862;DHT22;10093;48.148;8.542;2023-04-01T13:11:13;8.40;99.90
19862;DHT22;10093;48.148;8.542;2023-04-01T13:16:27;8.40;99.90
19862;DHT22;10093;48.148;8.542;2023-04-01T13:27:13;8.40;99.90
19862;DHT22;10093;48.148;8.542;2023-04-01T13:32:34;8.70;99.90
19862;DHT22;10093;48.148;8.542;2023-04-01T13:35:13;8.90;99.90
19862;DHT22;10093;48.148;8.542;2023-04-01T13:40:39;9.10;99.90
19862;DHT22;10093;48.148;8.542;2023-04-01T13:43:15;9.20;99.90
19862;DHT22;10093;48.148;8.542;2023-04-01T14:02:59;9.20;99.90
19862;DHT22;10093;48.148;8.542;2023-04-01T14:06:05;9.10;99.90
19862;DHT22;10093;48.148;8.542;2023-04-01T14:11:16;9.30;99.90
19862;DHT22;10093;48.148;8.542;2023-04-01T14:14:46;9.30;99.90
19862;DHT22;10093;48.148;8.542;2023-04-01T14:19:59;9.90;99.90
19862;DHT22;10093;48.148;8.542;2023-04-01T14:22:46;9.80;99.90
19862;DHT22;10093;48.148;8.542;2023-04-01T14:45:55;10.10;99.90
19862;DHT22;10093;48.148;8.542;2023-04-01T14:53:38;10.10;99.90
19862;DHT22;10093;48.148;8.542;2023-04-01T14:56:04;10.00;99.90
19862;DHT22;10093;48.148;8.542;2023-04-01T15:10:09;9.50;99.90
19862;DHT22;10093;48.148;8.542;2023-04-01T15:18:44;9.80;99.90
19862;DHT22;10093;48.148;8.542;2023-04-01T15:29:41;9.20;99.90
19862;DHT22;10093;48.148;8.542;2023-04-01T15:32:28;9.10;99.90
19862;DHT22;10093;48.148;8.542;2023-04-01T15:38:26;9.40;99.90
19862;DHT22;10093;48.148;8.542;2023-04-01T15:43:41;9.30;99.90
19862;DHT22;10093;48.148;8.542;2023-04-01T15:46:26;9.10;99.90
19862;DHT22;10093;48.148;8.542;2023-04-01T15:49:35;9.20;99.90
19862;DHT22;10093;48.148;8.542;2023-04-01T15:52:24;9.30;99.90
19862;DHT22;10093;48.148;8.542;2023-04-01T15:57:46;9.20;99.90
19862;DHT22;10093;48.148;8.542;2023-04-01T16:00:31;9.00;99.90
19862;DHT22;10093;48.148;8.542;2023-04-01T16:03:20;9.00;99.90
19862;DHT22;10093;48.148;8.542;2023-04-01T16:19:37;8.60;99.90
19862;DHT22;10093;48.148;8.542;2023-04-01T16:22:20;8.60;99.90
19862;DHT22;10093;48.148;8.542;2023-04-01T16:27:46;8.60;99.90
19862;DHT22;10093;48.148;8.542;2023-04-01T16:30:35;8.60;99.90
19862;DHT22;10093;48.148;8.542;2023-04-01T16:33:10;8.60;99.90
19862;DHT22;10093;48.148;8.542;2023-04-01T16:41:38;8.60;99.90
19862;DHT22;10093;48.148;8.542;2023-04-01T16:44:22;8.50;99.90
19862;DHT22;10093;48.148;8.542;2023-04-01T16:46:58;8.50;99.90
19862;DHT22;10093;48.148;8.542;2023-04-01T16:52:03;8.30;99.90
19862;DHT22;10093;48.148;8.542;2023-04-01T16:57:56;8.20;99.90
19862;DHT22;10093;48.148;8.542;2023-04-01T17:08:40;7.80;99.90
19862;DHT22;10093;48.148;8.542;2023-04-01T17:11:30;7.80;99.90
19862;DHT22;10093;48.148;8.542;2023-04-01T17:14:00;7.80;99.90
19862;DHT22;10093;48.148;8.542;2023-04-01T17:19:49;7.70;99.90
19862;DHT22;10093;48.148;8.542;2023-04-01T17:22:32;7.60;99.90
19862;DHT22;10093;48.148;8.542;2023-04-01T17:30:37;7.50;99.90
19862;DHT22;10093;48.148;8.542;2023-04-01T17:52:00;7.10;99.90
19862;DHT22;10093;48.148;8.542;2023-04-01T18:02:51;6.90;99.90
19862;DHT22;10093;48.148;8.542;2023-04-01T18:05:24;6.80;99.90
19862;DHT22;10093;48.148;8.542;2023-04-01T18:10:54;6.80;99.90
19862;DHT22;10093;48.148;8.542;2023-04-01T18:16:26;6.80;99.90
19862;DHT22;10093;48.148;8.542;2023-04-01T18:22:29;6.60;99.90
19862;DHT22;10093;48.148;8.542;2023-04-01T18:25:52;6.70;99.90
19862;DHT22;10093;48.148;8.542;2023-04-01T18:28:38;6.70;99.90
19862;DHT22;10093;48.148;8.542;2023-04-01T18:30:39;6.70;99.90
19862;DHT22;10093;48.148;8.542;2023-04-01T18:33:19;6.70;99.90
19862;DHT22;10093;48.148;8.542;2023-04-01T18:38:56;6.40;99.90
19862;DHT22;10093;48.148;8.542;2023-04-01T18:44:38;6.00;99.90
19862;DHT22;10093;48.148;8.542;2023-04-01T18:47:30;5.80;99.90
19862;DHT22;10093;48.148;8.542;2023-04-01T18:52:47;5.80;99.90
19862;DHT22;10093;48.148;8.542;2023-04-01T18:57:58;5.60;99.90
19862;DHT22;10093;48.148;8.542;2023-04-01T19:00:41;5.50;99.90
19862;DHT22;10093;48.148;8.542;2023-04-01T19:05:41;5.50;99.90
19862;DHT22;10093;48.148;8.542;2023-04-01T19:16:23;5.50;99.90
19862;DHT22;10093;48.148;8.542;2023-04-01T19:19:11;5.30;99.90
19862;DHT22;10093;48.148;8.542;2023-04-01T19:43:26;5.00;99.90
19862;DHT22;10093;48.148;8.542;2023-04-01T19:53:41;4.70;99.90
19862;DHT22;10093;48.148;8.542;2023-04-01T19:56:18;4.50;99.90
19862;DHT22;10093;48.148;8.542;2023-04-01T19:59:17;4.50;99.90
19862;DHT22;10093;48.148;8.542;2023-04-01T20:04:32;4.40;99.90
19862;DHT22;10093;48.148;8.542;2023-04-01T20:10:16;4.30;99.90
19862;DHT22;10093;48.148;8.542;2023-04-01T20:12:46;4.30;99.90
19862;DHT22;10093;48.148;8.542;2023-04-01T20:17:58;4.10;99.90
19862;DHT22;10093;48.148;8.542;2023-04-01T20:20:27;4.00;99.90
19862;DHT22;10093;48.148;8.542;2023-04-01T20:25:40;4.00;99.90
19862;DHT22;10093;48.148;8.542;2023-04-01T20:28:21;3.90;99.90
19862;DHT22;10093;48.148;8.542;2023-04-01T20:47:44;3.60;99.90
19862;DHT22;10093;48.148;8.542;2023-04-01T20:50:37;3.50;99.90
19862;DHT22;10093;48.148;8.542;2023-04-01T21:11:44;3.10;99.90
19862;DHT22;10093;48.148;8.542;2023-04-01T21:17:22;3.00;99.90
19862;DHT22;10093;48.148;8.542;2023-04-01T21:23:31;3.00;99.90
19862;DHT22;10093;48.148;8.542;2023-04-01T21:26:52;3.30;99.90
19862;DHT22;10093;48.148;8.542;2023-04-01T21:41:24;3.30;99.90
19862;DHT22;10093;48.148;8.542;2023-04-01T21:50:14;3.40;99.90
19862;DHT22;10093;48.148;8.542;2023-04-01T22:10:02;4.40;99.90
19862;DHT22;10093;48.148;8.542;2023-04-01T22:12:37;4.30;99.90
19862;DHT22;10093;48.148;8.542;2023-04-01T22:17:55;4.50;99.90
19862;DHT22;10093;48.148;8.542;2023-04-01T22:23:31;4.30;99.90
19862;DHT22;10093;48.148;8.542;2023-04-01T22:26:09;4.30;99.90
19862;DHT22;10093;48.148;8.542;2023-04-01T22:31:10;4.30;99.90
19862;DHT22;10093;48.148;8.542;2023-04-01T22:33:50;4.30;99.90
19862;DHT22;10093;48.148;8.542;2023-04-01T22:50:41;3.50;99.90
19862;DHT22;10093;48.148;8.542;2023-04-01T22:55:40;3.30;99.90
19862;DHT22;10093;48.148;8.542;2023-04-01T22:58:23;3.20;99.90
19862;DHT22;10093;48.148;8.542;2023-04-01T23:00:58;3.20;99.90
19862;DHT22;10093;48.148;8.542;2023-04-01T23:03:38;3.30;99.90
19862;DHT22;10093;48.148;8.542;2023-04-01T23:06:06;3.30;99.90
19862;DHT22;10093;48.148;8.542;2023-04-01T23:11:59;3.40;99.90
19862;DHT22;10093;48.148;8.542;2023-04-01T23:14:28;3.40;99.90
19862;DHT22;10093;48.148;8.542;2023-04-01T23:19:52;3.60;99.90
19862;DHT22;10093;48.148;8.542;2023-04-01T23:28:39;3.80;99.90
19862;DHT22;10093;48.148;8.542;2023-04-01T23:30:58;3.80;99.90
19862;DHT22;10093;48.148;8.542;2023-04-01T23:33:30;3.80;99.90
19862;DHT22;10093;48.148;8.542;2023-04-01T23:36:00;3.80;99.90
19862;DHT22;10093;48.148;8.542;2023-04-01T23:38:33;3.80;99.90
19862;DHT22;10093;48.148;8.542;2023-04-01T23:41:00;3.80;99.90
19862;DHT22;10093;48.148;8.542;2023-04-01T23:43:29;3.90;99.90
19862;DHT22;10093;48.148;8.542;2023-04-01T23:45:56;3.80;99.90
19862;DHT22;10093;48.148;8.542;2023-04-01T23:48:33;3.80;99.90
19862;DHT22;10093;48.148;8.542;2023-04-01T23:50:59;3.90;99.90
19862;DHT22;10093;48.148;8.542;2023-04-01T23:53:29;4.10;99.90
19862;DHT22;10093;48.148;8.542;2023-04-01T23:55:56;3.90;99.90
19862;DHT22;10093;48.148;8.542;2023-04-01T23:58:24;3.80;99.90
